Grandfield, OK (73546)

10:02 PM CST on February 07, 2016 (GMT -0600)
Old Corral | | Change Station
CLOSE
Current Station
Personal Weather Station
Location: Electra, TX
Elevation: 1112 ft
Nearby Weather Stations

Elev 1112 ft 34.12 °N, 98.84 °W | Updated 8 minutes ago

Clear
Clear
47.1 °F
Feels Like 42 °F
N
9.9
Wind Variable Wind from NE

Today
High -- | Low -- °F
--% Chance of Precip.
Yesterday
High -- | Low -- °F
Precip. -- in
Pressure 30.32 in
Visibility 10.0 miles
Clouds Clear
Windchill 42 °F
Dew Point 25 °F
Humidity 42%
Rainfall 0.00 in
Snow Depth Not available.
7:27 AM 6:10 PM
Waning Crescent, 0% visible
METAR KFDR 080353Z AUTO 35019KT 10SM CLR 08/M06 A3031 RMK AO2 PK WND 36028/0303 SLP266 T00781061
Pressure 30.32 in
Visibility 10.0 miles
Clouds Clear
Windchill 42 °F
Dew Point 25 °F
Humidity 42%
Rainfall 0.00 in
Snow Depth Not available.
7:27 AM 6:10 PM
Waning Crescent, 0% visible
METAR KFDR 080353Z AUTO 35019KT 10SM CLR 08/M06 A3031 RMK AO2 PK WND 36028/0303 SLP266 T00781061

10-Day Weather Forecast

Almanac

Astronomy

Feb. 07, 2016 Rise Set
Actual Time
Civil Twilight
Nautical Twilight
Astronomical Twilight
Moon
Length of Visible Light
Length of Day
Tomorrow will be .
, % of the Moon is Illuminated

Today's Extremes

State Highs State Lows

Community

WunderPhotos

Upload Photos

1,891,378 photos uploaded!

WunderBlog® & News

Nearby

Air Quality

  Air Quality AQ Index Pollutant
Not available.

Snow Depth

Station Depth Elevation

Earthquake Activity

City Distance Mag. Time & Date
Minimum magnitude displayed is 2.5.

Coastal Water Temperatures

Place Temperature

Stations

Nearby Weather Stations

Station Location Temp. Windchill Dew Point Humidity Wind Precip. Elev Updated Type
                   

Watches & Warnings

There are currently no watches in effect.